Ship Status Report: callsign PC6830

sailwx.info

Track history (hours):
 
Tides and Currents Weather Stations Pressure Air Temp Water Temp Dewpoint Dewpoint Depression Visibility Wind Speed Wind Dir Waves Ship Positions

Callsign PC6830 (name unknown)

Last reported at 2017-Oct-05 04:37 UTC. Time now 2017-Oct-17 17:14 UTC.
Position N 37°34' W 000°48'.
Warning: this ship's position is 12 days out of date.

Length 14 m.

Type: Ship. MMSI: 244110220.

Date/timePositionNaut miles runAvg speedWind from/ knotsBaromVisibWave heightAir tempDewpointWater temp
2017-Oct-05 04:37N 37°34' W 000°48'1 3.7
2017-Oct-05 04:25N 37°34' W 000°48'2 3.6
2017-Oct-05 03:58N 37°34' W 000°46'6 3.1
2017-Oct-05 02:06N 37°37' W 000°39'0 3.1
2017-Oct-05 01:59N 37°37' W 000°39'2 3.2
2017-Oct-05 01:26N 37°38' W 000°37'1 3.1
2017-Oct-05 01:00N 37°39' W 000°36'2 2.9
2017-Oct-05 00:29N 37°40' W 000°34'1 2.6
2017-Oct-05 00:00N 37°41' W 000°33'1 2.5
2017-Oct-04 23:30N 37°42' W 000°32'2 2.9
2017-Oct-04 22:57N 37°43' W 000°30'1 3.2
2017-Oct-04 22:30N 37°44' W 000°29'112 4.2
2017-Oct-03 20:03N 38°49' E 001°26'2 5.3
2017-Oct-03 19:45N 38°50' E 001°28'1 5.4
2017-Oct-03 19:30N 38°51' E 001°29'3 5.5
2017-Oct-03 19:00N 38°53' E 001°32'  
2017-Sep-28 09:41N 39°31' E 002°28'0 0.0
2017-Sep-28 09:25N 39°31' E 002°28'0 0.0
2017-Sep-28 08:41N 39°31' E 002°28'0 0.0
2017-Sep-28 08:16N 39°31' E 002°28'0 0.0
2017-Sep-28 07:53N 39°31' E 002°28'0 0.0
2017-Sep-28 07:01N 39°31' E 002°28'0 0.0
2017-Sep-28 06:55N 39°31' E 002°28'1 1.0
2017-Sep-28 06:25N 39°31' E 002°29'0 0.0
2017-Sep-28 05:55N 39°31' E 002°29'0 0.0
2017-Sep-28 05:22N 39°31' E 002°29'0 0.0
2017-Sep-28 04:52N 39°31' E 002°29'0 0.0
2017-Sep-28 04:28N 39°31' E 002°29'0 0.0
2017-Sep-28 03:58N 39°31' E 002°29'0 0.0
2017-Sep-28 02:42N 39°31' E 002°29'0 0.0
2017-Sep-28 02:24N 39°31' E 002°29'0 0.0
2017-Sep-28 01:53N 39°31' E 002°29'0 0.0
2017-Sep-28 01:25N 39°31' E 002°29'0 0.0
2017-Sep-28 00:46N 39°31' E 002°29'0 0.0
2017-Sep-28 00:22N 39°31' E 002°29'0 0.0
2017-Sep-27 23:27N 39°31' E 002°29'0 0.0
2017-Sep-27 23:00N 39°31' E 002°29'0 0.0
2017-Sep-27 22:24N 39°31' E 002°29'0 0.0
2017-Sep-27 21:40N 39°31' E 002°29'0 0.0
2017-Sep-27 21:18N 39°31' E 002°29'0 0.0
2017-Sep-27 21:00N 39°31' E 002°29'0 0.0
2017-Sep-27 20:16N 39°31' E 002°29'0 0.0
2017-Sep-27 19:48N 39°31' E 002°29'0 0.0
2017-Sep-27 19:30N 39°31' E 002°29'0 0.0
2017-Sep-27 18:45N 39°31' E 002°29'0 0.0
2017-Sep-27 18:27N 39°31' E 002°29'0 0.0
2017-Sep-27 17:57N 39°31' E 002°29'0 0.0
2017-Sep-27 17:27N 39°31' E 002°29'0 0.0
2017-Sep-27 16:35N 39°31' E 002°29'0 0.2
2017-Sep-27 16:26N 39°31' E 002°29'2 4.3
2017-Sep-27 15:59N 39°31' E 002°26'1 0.3
2017-Sep-27 13:47N 39°31' E 002°25'1 3.4
2017-Sep-27 13:30N 39°30' E 002°26'1 1.8
2017-Sep-27 13:00N 39°30' E 002°27'1 0.5
2017-Sep-27 10:46N 39°31' E 002°29'0 0.0
2017-Sep-27 10:30N 39°31' E 002°29'0 0.0
2017-Sep-27 09:52N 39°31' E 002°29'0 0.0
2017-Sep-27 09:29N 39°31' E 002°29'0 0.0
2017-Sep-27 08:56N 39°31' E 002°29'0 0.0
2017-Sep-27 08:27N 39°31' E 002°29'0 0.0
2017-Sep-27 08:00N 39°31' E 002°29'0 0.0
2017-Sep-27 07:22N 39°31' E 002°29'0 0.0
2017-Sep-27 06:59N 39°31' E 002°29'0 0.0
2017-Sep-27 06:29N 39°31' E 002°29'0 0.0
2017-Sep-27 05:58N 39°31' E 002°29'0 0.0
2017-Sep-27 05:30N 39°31' E 002°29'0 0.0
2017-Sep-27 05:00N 39°31' E 002°29'0 0.0
2017-Sep-27 04:29N 39°31' E 002°29'0 0.0
2017-Sep-27 03:50N 39°31' E 002°29'0 0.0
2017-Sep-27 02:40N 39°31' E 002°29'0 0.0
2017-Sep-27 02:20N 39°31' E 002°29'0 0.0
2017-Sep-27 01:58N 39°31' E 002°29'0 0.0
2017-Sep-27 01:30N 39°31' E 002°29'0 0.0
2017-Sep-27 00:57N 39°31' E 002°29'0 0.0
2017-Sep-27 00:15N 39°31' E 002°29'0 0.0
2017-Sep-26 23:58N 39°31' E 002°29'0 0.0
2017-Sep-26 23:11N 39°31' E 002°29'0 0.0
2017-Sep-26 22:50N 39°31' E 002°29'0 0.0
2017-Sep-26 22:02N 39°31' E 002°29'0 0.1
2017-Sep-26 21:56N 39°31' E 002°29'0 0.0
2017-Sep-26 21:26N 39°31' E 002°29'0 0.0
2017-Sep-26 20:57N 39°31' E 002°29'0 0.0
2017-Sep-26 20:13N 39°31' E 002°29'0 0.0
2017-Sep-26 19:50N 39°31' E 002°29'0 0.0
2017-Sep-26 19:29N 39°31' E 002°29'0 0.0
2017-Sep-26 18:58N 39°31' E 002°29'0 0.0
2017-Sep-26 18:28N 39°31' E 002°29'0 0.0
2017-Sep-26 17:56N 39°31' E 002°29'0 0.0
2017-Sep-26 17:30N 39°31' E 002°29'0 0.0
2017-Sep-26 17:00N 39°31' E 002°29'0 0.0
2017-Sep-26 16:28N 39°31' E 002°29'0 0.0
2017-Sep-26 16:00N 39°31' E 002°29'0 0.0
2017-Sep-26 15:22N 39°31' E 002°29'0 0.0
2017-Sep-26 14:59N 39°31' E 002°29'1 0.9
2017-Sep-26 13:47N 39°30' E 002°28'0 0.0
2017-Sep-26 13:27N 39°30' E 002°28'0 0.3
2017-Sep-26 12:58N 39°30' E 002°27'1 3.1
2017-Sep-26 12:30N 39°31' E 002°26'0 0.1
2017-Sep-26 09:05N 39°31' E 002°25'1 3.3
2017-Sep-26 08:55N 39°31' E 002°26'2 2.7
2017-Sep-26 08:18N 39°31' E 002°28'0 1.5
2017-Sep-26 08:00N 39°31' E 002°29'0 0.0
2017-Sep-26 07:29N 39°31' E 002°29'0 0.0
2017-Sep-26 06:56N 39°31' E 002°29'0 0.0
2017-Sep-26 05:52N 39°31' E 002°29'0 0.0
2017-Sep-26 05:17N 39°31' E 002°29'0 0.0
2017-Sep-26 04:58N 39°31' E 002°29'0 0.0
2017-Sep-26 04:23N 39°31' E 002°29'0 0.0
2017-Sep-26 03:57N 39°31' E 002°29'0 0.0
2017-Sep-26 02:53N 39°31' E 002°29'0 0.0
2017-Sep-26 02:24N 39°31' E 002°29'0 0.0
2017-Sep-26 02:00N 39°31' E 002°29'0 0.0
2017-Sep-26 01:30N 39°31' E 002°29'0 0.0
2017-Sep-26 01:00N 39°31' E 002°29'0 0.0
2017-Sep-25 20:42N 39°31' E 002°29'0 0.0
2017-Sep-25 20:13N 39°31' E 002°29'0 0.0
2017-Sep-25 17:57N 39°31' E 002°29'0 0.0
2017-Sep-25 17:22N 39°31' E 002°29'0 0.0
2017-Sep-25 14:24N 39°31' E 002°29'0 0.0
2017-Sep-25 13:51N 39°31' E 002°29'0 0.0
2017-Sep-25 11:13N 39°31' E 002°29'0 0.0
2017-Sep-25 10:37N 39°31' E 002°29'0 0.0
2017-Sep-25 08:35N 39°31' E 002°29'0 0.0
2017-Sep-25 08:24N 39°31' E 002°29'0 0.0
2017-Sep-25 06:14N 39°31' E 002°29'0 0.0
2017-Sep-25 05:50N 39°31' E 002°29'0 0.0
2017-Sep-25 05:24N 39°31' E 002°29'  
Track history (hours):
 
Tides and Currents Weather Stations Pressure Air Temp Water Temp Dewpoint Dewpoint Depression Visibility Wind Speed Wind Dir Waves Ship Positions

Callsign PC6830 (name unknown)

Last reported at 2017-Oct-05 04:37 UTC. Time now 2017-Oct-17 17:14 UTC.
Position N 37°34' W 000°48'.
Warning: this ship's position is 12 days out of date.

Length 14 m.

Type: Ship. MMSI: 244110220.

Date/timePositionNaut miles runAvg speedWind from/ knotsBaromVisibWave heightAir tempDewpointWater temp
2017-Oct-05 04:37N 37°34' W 000°48'1 3.7
2017-Oct-05 04:25N 37°34' W 000°48'2 3.6
2017-Oct-05 03:58N 37°34' W 000°46'6 3.1
2017-Oct-05 02:06N 37°37' W 000°39'0 3.1
2017-Oct-05 01:59N 37°37' W 000°39'2 3.2
2017-Oct-05 01:26N 37°38' W 000°37'1 3.1
2017-Oct-05 01:00N 37°39' W 000°36'2 2.9
2017-Oct-05 00:29N 37°40' W 000°34'1 2.6
2017-Oct-05 00:00N 37°41' W 000°33'1 2.5
2017-Oct-04 23:30N 37°42' W 000°32'2 2.9
2017-Oct-04 22:57N 37°43' W 000°30'1 3.2
2017-Oct-04 22:30N 37°44' W 000°29'112 4.2
2017-Oct-03 20:03N 38°49' E 001°26'2 5.3
2017-Oct-03 19:45N 38°50' E 001°28'1 5.4
2017-Oct-03 19:30N 38°51' E 001°29'3 5.5
2017-Oct-03 19:00N 38°53' E 001°32'  
2017-Sep-28 09:41N 39°31' E 002°28'0 0.0
2017-Sep-28 09:25N 39°31' E 002°28'0 0.0
2017-Sep-28 08:41N 39°31' E 002°28'0 0.0
2017-Sep-28 08:16N 39°31' E 002°28'0 0.0
2017-Sep-28 07:53N 39°31' E 002°28'0 0.0
2017-Sep-28 07:01N 39°31' E 002°28'0 0.0
2017-Sep-28 06:55N 39°31' E 002°28'1 1.0
2017-Sep-28 06:25N 39°31' E 002°29'0 0.0
2017-Sep-28 05:55N 39°31' E 002°29'0 0.0
2017-Sep-28 05:22N 39°31' E 002°29'0 0.0
2017-Sep-28 04:52N 39°31' E 002°29'0 0.0
2017-Sep-28 04:28N 39°31' E 002°29'0 0.0
2017-Sep-28 03:58N 39°31' E 002°29'0 0.0
2017-Sep-28 02:42N 39°31' E 002°29'0 0.0
2017-Sep-28 02:24N 39°31' E 002°29'0 0.0
2017-Sep-28 01:53N 39°31' E 002°29'0 0.0
2017-Sep-28 01:25N 39°31' E 002°29'0 0.0
2017-Sep-28 00:46N 39°31' E 002°29'0 0.0
2017-Sep-28 00:22N 39°31' E 002°29'0 0.0
2017-Sep-27 23:27N 39°31' E 002°29'0 0.0
2017-Sep-27 23:00N 39°31' E 002°29'0 0.0
2017-Sep-27 22:24N 39°31' E 002°29'0 0.0
2017-Sep-27 21:40N 39°31' E 002°29'0 0.0
2017-Sep-27 21:18N 39°31' E 002°29'0 0.0
2017-Sep-27 21:00N 39°31' E 002°29'0 0.0
2017-Sep-27 20:16N 39°31' E 002°29'0 0.0
2017-Sep-27 19:48N 39°31' E 002°29'0 0.0
2017-Sep-27 19:30N 39°31' E 002°29'0 0.0
2017-Sep-27 18:45N 39°31' E 002°29'0 0.0
2017-Sep-27 18:27N 39°31' E 002°29'0 0.0
2017-Sep-27 17:57N 39°31' E 002°29'0 0.0
2017-Sep-27 17:27N 39°31' E 002°29'0 0.0
2017-Sep-27 16:35N 39°31' E 002°29'0 0.2
2017-Sep-27 16:26N 39°31' E 002°29'2 4.3
2017-Sep-27 15:59N 39°31' E 002°26'1 0.3
2017-Sep-27 13:47N 39°31' E 002°25'1 3.4
2017-Sep-27 13:30N 39°30' E 002°26'1 1.8
2017-Sep-27 13:00N 39°30' E 002°27'1 0.5
2017-Sep-27 10:46N 39°31' E 002°29'0 0.0
2017-Sep-27 10:30N 39°31' E 002°29'0 0.0
2017-Sep-27 09:52N 39°31' E 002°29'0 0.0
2017-Sep-27 09:29N 39°31' E 002°29'0 0.0
2017-Sep-27 08:56N 39°31' E 002°29'0 0.0
2017-Sep-27 08:27N 39°31' E 002°29'0 0.0
2017-Sep-27 08:00N 39°31' E 002°29'0 0.0
2017-Sep-27 07:22N 39°31' E 002°29'0 0.0
2017-Sep-27 06:59N 39°31' E 002°29'0 0.0
2017-Sep-27 06:29N 39°31' E 002°29'0 0.0
2017-Sep-27 05:58N 39°31' E 002°29'0 0.0
2017-Sep-27 05:30N 39°31' E 002°29'0 0.0
2017-Sep-27 05:00N 39°31' E 002°29'0 0.0
2017-Sep-27 04:29N 39°31' E 002°29'0 0.0
2017-Sep-27 03:50N 39°31' E 002°29'0 0.0
2017-Sep-27 02:40N 39°31' E 002°29'0 0.0
2017-Sep-27 02:20N 39°31' E 002°29'0 0.0
2017-Sep-27 01:58N 39°31' E 002°29'0 0.0
2017-Sep-27 01:30N 39°31' E 002°29'0 0.0
2017-Sep-27 00:57N 39°31' E 002°29'0 0.0
2017-Sep-27 00:15N 39°31' E 002°29'0 0.0
2017-Sep-26 23:58N 39°31' E 002°29'0 0.0
2017-Sep-26 23:11N 39°31' E 002°29'0 0.0
2017-Sep-26 22:50N 39°31' E 002°29'0 0.0
2017-Sep-26 22:02N 39°31' E 002°29'0 0.1
2017-Sep-26 21:56N 39°31' E 002°29'0 0.0
2017-Sep-26 21:26N 39°31' E 002°29'0 0.0
2017-Sep-26 20:57N 39°31' E 002°29'0 0.0
2017-Sep-26 20:13N 39°31' E 002°29'0 0.0
2017-Sep-26 19:50N 39°31' E 002°29'0 0.0
2017-Sep-26 19:29N 39°31' E 002°29'0 0.0
2017-Sep-26 18:58N 39°31' E 002°29'0 0.0
2017-Sep-26 18:28N 39°31' E 002°29'0 0.0
2017-Sep-26 17:56N 39°31' E 002°29'0 0.0
2017-Sep-26 17:30N 39°31' E 002°29'0 0.0
2017-Sep-26 17:00N 39°31' E 002°29'0 0.0
2017-Sep-26 16:28N 39°31' E 002°29'0 0.0
2017-Sep-26 16:00N 39°31' E 002°29'0 0.0
2017-Sep-26 15:22N 39°31' E 002°29'0 0.0
2017-Sep-26 14:59N 39°31' E 002°29'1 0.9
2017-Sep-26 13:47N 39°30' E 002°28'0 0.0
2017-Sep-26 13:27N 39°30' E 002°28'0 0.3
2017-Sep-26 12:58N 39°30' E 002°27'1 3.1
2017-Sep-26 12:30N 39°31' E 002°26'0 0.1
2017-Sep-26 09:05N 39°31' E 002°25'1 3.3
2017-Sep-26 08:55N 39°31' E 002°26'2 2.7
2017-Sep-26 08:18N 39°31' E 002°28'0 1.5
2017-Sep-26 08:00N 39°31' E 002°29'0 0.0
2017-Sep-26 07:29N 39°31' E 002°29'0 0.0
2017-Sep-26 06:56N 39°31' E 002°29'0 0.0
2017-Sep-26 05:52N 39°31' E 002°29'0 0.0
2017-Sep-26 05:17N 39°31' E 002°29'0 0.0
2017-Sep-26 04:58N 39°31' E 002°29'0 0.0
2017-Sep-26 04:23N 39°31' E 002°29'0 0.0
2017-Sep-26 03:57N 39°31' E 002°29'0 0.0
2017-Sep-26 02:53N 39°31' E 002°29'0 0.0
2017-Sep-26 02:24N 39°31' E 002°29'0 0.0
2017-Sep-26 02:00N 39°31' E 002°29'0 0.0
2017-Sep-26 01:30N 39°31' E 002°29'0 0.0
2017-Sep-26 01:00N 39°31' E 002°29'0 0.0
2017-Sep-25 20:42N 39°31' E 002°29'0 0.0
2017-Sep-25 20:13N 39°31' E 002°29'0 0.0
2017-Sep-25 17:57N 39°31' E 002°29'0 0.0
2017-Sep-25 17:22N 39°31' E 002°29'0 0.0
2017-Sep-25 14:24N 39°31' E 002°29'0 0.0
2017-Sep-25 13:51N 39°31' E 002°29'0 0.0
2017-Sep-25 11:13N 39°31' E 002°29'0 0.0
2017-Sep-25 10:37N 39°31' E 002°29'0 0.0
2017-Sep-25 08:35N 39°31' E 002°29'0 0.0
2017-Sep-25 08:24N 39°31' E 002°29'0 0.0
2017-Sep-25 06:14N 39°31' E 002°29'0 0.0
2017-Sep-25 05:50N 39°31' E 002°29'0 0.0
2017-Sep-25 05:24N 39°31' E 002°29'  

Dump ship's entire track history